createdAt,value
2018-09-08T00:02:20.791Z,92.94
2018-09-08T00:04:48.888Z,93.77
2018-09-08T00:07:22.333Z,93.98
2018-09-08T00:09:50.339Z,93.69
2018-09-08T00:12:18.325Z,92.80
2018-09-08T00:14:45.648Z,93.39
2018-09-08T00:17:19.104Z,95.56
2018-09-08T00:19:52.596Z,94.40
2018-09-08T00:22:26.288Z,94.42
2018-09-08T00:25:00.016Z,94.23
2018-09-08T00:27:33.494Z,94.34
2018-09-08T00:30:06.059Z,94.55
2018-09-08T00:32:34.887Z,94.86
2018-09-08T00:35:02.933Z,94.38
2018-09-08T00:37:31.089Z,94.88
2018-09-08T00:39:59.203Z,94.04
2018-09-08T00:42:27.243Z,94.42
2018-09-08T00:44:55.327Z,94.81
2018-09-08T00:47:23.387Z,95.25
2018-09-08T00:49:51.515Z,94.82
2018-09-08T00:52:19.561Z,95.85
2018-09-08T00:54:47.680Z,95.71
2018-09-08T00:57:15.730Z,95.59
2018-09-08T00:59:43.728Z,95.18
2018-09-08T01:02:11.790Z,95.08
2018-09-08T01:04:40.103Z,95.55
2018-09-08T01:07:13.527Z,94.86
2018-09-08T01:09:41.824Z,95.55
2018-09-08T01:12:09.888Z,96.56
2018-09-08T01:14:38.005Z,96.00
2018-09-08T01:17:06.099Z,96.43
2018-09-08T01:19:34.855Z,97.04
2018-09-08T01:22:04.001Z,98.11
2018-09-08T01:24:32.153Z,97.30
2018-09-08T01:27:00.160Z,96.88
2018-09-08T01:29:28.162Z,96.84
2018-09-08T01:31:56.205Z,96.89
2018-09-08T01:34:24.307Z,96.45
2018-09-08T01:36:52.474Z,96.59
2018-09-08T01:39:20.417Z,97.76
2018-09-08T01:41:48.444Z,97.23
2018-09-08T01:44:16.594Z,97.03
2018-09-08T01:46:44.652Z,96.75
2018-09-08T01:49:12.699Z,96.94
2018-09-08T01:51:40.705Z,97.36
2018-09-08T01:54:08.835Z,97.30
2018-09-08T01:56:36.917Z,96.54
2018-09-08T01:59:05.268Z,97.78
2018-09-08T02:01:33.709Z,96.66
2018-09-08T02:04:01.797Z,97.69
2018-09-08T02:06:29.927Z,98.39
2018-09-08T02:08:58.245Z,98.25
2018-09-08T02:11:26.359Z,98.86
2018-09-08T02:13:54.723Z,97.79
2018-09-08T02:16:23.064Z,98.05
2018-09-08T02:18:51.114Z,99.57
2018-09-08T02:21:19.433Z,99.04
2018-09-08T02:23:47.966Z,99.16
2018-09-08T02:26:16.036Z,99.02
2018-09-08T02:28:44.017Z,98.63
2018-09-08T02:31:12.496Z,99.15
2018-09-08T02:33:40.801Z,99.08
2018-09-08T02:36:09.019Z,99.47
2018-09-08T02:38:37.508Z,98.65
2018-09-08T02:41:05.874Z,100.00
2018-09-08T02:43:34.099Z,100.00
2018-09-08T02:46:02.296Z,100.00
2018-09-08T02:48:30.567Z,100.00
2018-09-08T02:50:58.717Z,99.67
2018-09-08T02:53:25.581Z,99.83
2018-09-08T02:55:52.609Z,99.75
2018-09-08T02:58:19.583Z,100.00
2018-09-08T03:00:46.501Z,100.00
2018-09-08T03:03:14.342Z,100.00
2018-09-08T03:05:41.256Z,100.00
2018-09-08T03:08:07.947Z,99.86
2018-09-08T03:10:34.727Z,99.55
2018-09-08T03:13:01.411Z,99.51
2018-09-08T03:15:28.230Z,100.00
2018-09-08T03:17:55.023Z,100.00
2018-09-08T03:20:21.737Z,99.71
2018-09-08T03:22:48.388Z,100.00
2018-09-08T03:25:15.213Z,100.00
2018-09-08T03:27:41.932Z,100.00
2018-09-08T03:30:08.682Z,99.21
2018-09-08T03:32:35.414Z,99.73
2018-09-08T03:35:02.238Z,99.12
2018-09-08T03:37:29.001Z,100.00
2018-09-08T03:39:56.425Z,100.00
2018-09-08T03:42:23.689Z,100.00
2018-09-08T03:44:50.620Z,99.51
2018-09-08T03:47:17.479Z,99.80
2018-09-08T03:49:44.626Z,99.55
2018-09-08T03:52:11.460Z,100.00
2018-09-08T03:54:38.354Z,100.00
2018-09-08T03:57:05.249Z,100.00
2018-09-08T03:59:32.112Z,100.00
2018-09-08T04:01:58.820Z,100.00
2018-09-08T04:04:26.961Z,100.00
2018-09-08T04:06:55.052Z,98.63
2018-09-08T04:09:23.217Z,100.00
2018-09-08T04:11:51.446Z,100.00
2018-09-08T04:14:19.633Z,99.85
2018-09-08T04:16:47.888Z,100.00
2018-09-08T04:19:16.353Z,99.50
2018-09-08T04:21:44.674Z,100.00
2018-09-08T04:24:12.858Z,100.00
2018-09-08T04:26:41.217Z,99.63
2018-09-08T04:29:09.471Z,98.38
2018-09-08T04:31:37.663Z,98.02
2018-09-08T04:34:06.025Z,95.56
2018-09-08T04:36:34.112Z,93.32
2018-09-08T04:39:02.652Z,92.33
2018-09-08T04:41:31.341Z,89.48
2018-09-08T04:43:59.677Z,87.16
2018-09-08T04:46:27.847Z,85.59
2018-09-08T04:48:55.951Z,83.30
2018-09-08T04:51:24.798Z,80.64
2018-09-08T04:53:53.890Z,82.14
2018-09-08T04:56:22.587Z,84.07
2018-09-08T04:58:50.889Z,82.76
2018-09-08T05:01:19.712Z,82.96
2018-09-08T05:03:48.338Z,83.56
2018-09-08T05:06:16.899Z,83.96
2018-09-08T05:08:46.103Z,84.10
2018-09-08T05:11:14.678Z,84.48
2018-09-08T05:13:44.161Z,83.11
2018-09-08T05:16:12.807Z,80.58
2018-09-08T05:18:41.740Z,79.21
2018-09-08T05:21:10.156Z,78.45
2018-09-08T05:23:38.265Z,76.89
2018-09-08T05:26:06.785Z,75.29
2018-09-08T05:28:35.035Z,75.71
2018-09-08T05:31:03.276Z,75.34
2018-09-08T05:33:31.468Z,73.98
2018-09-08T05:35:59.838Z,75.46
2018-09-08T05:38:28.108Z,74.81
2018-09-08T05:40:56.203Z,74.00
2018-09-08T05:43:24.895Z,71.15
2018-09-08T05:45:53.310Z,72.91
2018-09-08T05:48:22.207Z,73.41
2018-09-08T05:50:52.980Z,75.21
2018-09-08T05:53:24.704Z,75.68
2018-09-08T05:55:55.126Z,79.08
2018-09-08T05:58:33.099Z,78.78
2018-09-08T06:01:03.234Z,78.76
2018-09-08T06:03:31.749Z,79.50
2018-09-08T06:06:00.177Z,78.26
2018-09-08T06:08:28.766Z,77.17
2018-09-08T06:10:57.369Z,75.69
2018-09-08T06:13:26.569Z,77.43
2018-09-08T06:15:55.136Z,76.56
2018-09-08T06:18:24.050Z,76.85
2018-09-08T06:20:53.649Z,76.49
2018-09-08T06:23:22.396Z,77.33
2018-09-08T06:25:51.670Z,77.83
2018-09-08T06:28:21.828Z,76.39
2018-09-08T06:30:49.946Z,74.76
2018-09-08T06:33:18.437Z,76.13
2018-09-08T06:35:46.739Z,77.30
2018-09-08T06:38:14.867Z,76.93
2018-09-08T06:40:43.281Z,76.93
2018-09-08T06:43:11.745Z,76.21
2018-09-08T06:45:40.206Z,73.71
2018-09-08T06:48:08.793Z,74.53
2018-09-08T06:50:37.150Z,74.17
2018-09-08T06:53:05.467Z,69.33
2018-09-08T06:55:34.401Z,69.47
2018-09-08T06:58:02.681Z,68.42
2018-09-08T07:00:31.477Z,69.89
2018-09-08T07:03:00.087Z,69.79
2018-09-08T07:07:55.817Z,67.47
2018-09-08T07:10:24.360Z,65.21
2018-09-08T07:12:52.569Z,64.94
2018-09-08T07:15:20.745Z,66.91
2018-09-08T07:17:49.396Z,64.93
2018-09-08T07:20:17.713Z,65.84
2018-09-08T07:22:45.893Z,66.58
2018-09-08T07:25:14.180Z,64.43
2018-09-08T07:27:42.681Z,66.12
2018-09-08T07:30:11.077Z,64.67
2018-09-08T07:32:39.439Z,64.41
2018-09-08T07:35:10.235Z,64.56
2018-09-08T07:37:38.581Z,64.19
2018-09-08T07:40:06.991Z,63.50
2018-09-08T07:42:35.383Z,64.08
2018-09-08T07:45:04.099Z,60.66
2018-09-08T07:47:32.634Z,58.08
2018-09-08T07:50:00.889Z,57.58
2018-09-08T07:52:29.078Z,55.85
2018-09-08T07:54:58.134Z,56.50
2018-09-08T07:57:26.788Z,54.33
2018-09-08T07:59:55.107Z,55.68
2018-09-08T08:02:23.441Z,56.33
2018-09-08T08:04:51.578Z,57.40
2018-09-08T08:07:20.323Z,54.71
2018-09-08T08:09:48.810Z,57.12
2018-09-08T08:12:17.524Z,49.89
2018-09-08T08:14:45.938Z,52.24
2018-09-08T08:17:14.468Z,51.39
2018-09-08T08:19:42.919Z,52.40
2018-09-08T08:22:11.312Z,50.90
2018-09-08T08:24:39.856Z,52.51
2018-09-08T08:27:08.771Z,49.05
2018-09-08T08:29:37.139Z,50.52
2018-09-08T08:32:05.875Z,53.45
2018-09-08T08:34:34.321Z,51.18
2018-09-08T08:37:02.967Z,51.19
2018-09-08T08:39:31.365Z,51.99
2018-09-08T08:41:59.969Z,51.05
2018-09-08T08:44:28.840Z,49.84
2018-09-08T08:46:58.268Z,50.75
2018-09-08T08:49:27.265Z,50.69
2018-09-08T08:52:06.528Z,50.22
2018-09-08T08:54:41.449Z,49.15
2018-09-08T08:57:11.286Z,50.26
2018-09-08T08:59:39.864Z,49.76
2018-09-08T09:02:08.377Z,50.33
2018-09-08T09:04:37.337Z,52.44
2018-09-08T09:07:06.243Z,51.57
2018-09-08T09:09:34.623Z,50.02
2018-09-08T09:12:03.191Z,50.20
2018-09-08T09:14:31.810Z,51.70
2018-09-08T09:17:01.105Z,50.24
2018-09-08T09:19:41.676Z,51.07
2018-09-08T09:22:22.412Z,51.38
2018-09-08T09:24:59.182Z,49.76
2018-09-08T09:27:28.736Z,51.80
2018-09-08T09:29:57.655Z,51.27
2018-09-08T09:32:26.852Z,50.63
2018-09-08T09:34:55.198Z,51.57
2018-09-08T09:37:23.751Z,51.80
2018-09-08T09:39:52.444Z,50.54
2018-09-08T09:42:20.497Z,50.57
2018-09-08T09:44:48.625Z,50.06
2018-09-08T09:47:17.055Z,49.46
2018-09-08T09:49:45.160Z,46.21
2018-09-08T09:52:13.487Z,47.59
2018-09-08T09:54:41.825Z,41.47
2018-09-08T09:57:10.147Z,43.54
2018-09-08T09:59:38.313Z,43.54
2018-09-08T10:02:12.848Z,46.27
2018-09-08T10:04:41.030Z,47.52
2018-09-08T10:07:10.492Z,46.77
2018-09-08T10:09:40.194Z,43.89
2018-09-08T10:12:08.700Z,44.18
2018-09-08T10:14:37.526Z,40.98
2018-09-08T10:17:06.906Z,42.61
2018-09-08T10:19:36.419Z,42.05
2018-09-08T10:22:05.151Z,43.92
2018-09-08T10:24:33.690Z,45.91
2018-09-08T10:27:02.142Z,46.34
2018-09-08T10:29:31.176Z,49.44
2018-09-08T10:32:00.053Z,52.66
2018-09-08T10:34:29.141Z,67.24
2018-09-08T10:36:57.862Z,75.65
2018-09-08T10:39:26.752Z,81.10
2018-09-08T10:41:55.462Z,82.06
2018-09-08T10:44:24.089Z,82.90
2018-09-08T10:46:52.981Z,83.27
2018-09-08T10:49:21.746Z,84.36
2018-09-08T10:52:02.485Z,82.98
2018-09-08T10:54:30.915Z,82.95
2018-09-08T10:56:59.706Z,85.19
2018-09-08T10:59:28.318Z,84.51
2018-09-08T11:01:57.215Z,84.39
2018-09-08T11:04:25.934Z,85.70
2018-09-08T11:06:58.570Z,84.16
2018-09-08T11:09:27.289Z,83.49
2018-09-08T11:11:56.122Z,85.77
2018-09-08T11:14:24.860Z,84.62
2018-09-08T11:16:54.536Z,85.82
2018-09-08T11:19:26.533Z,86.32
2018-09-08T11:21:55.898Z,85.65
2018-09-08T11:24:24.793Z,83.89
2018-09-08T11:26:54.135Z,84.58
2018-09-08T11:29:23.157Z,85.62
2018-09-08T11:31:52.131Z,82.52
2018-09-08T11:34:20.770Z,84.01
2018-09-08T11:36:50.145Z,77.24
2018-09-08T11:39:19.161Z,76.33
2018-09-08T11:41:48.142Z,76.24
2018-09-08T11:44:17.598Z,74.16
2018-09-08T11:46:48.142Z,73.71
2018-09-08T11:49:17.094Z,71.08
2018-09-08T11:51:45.665Z,70.75
2018-09-08T11:54:14.239Z,69.40
2018-09-08T11:56:43.254Z,71.12
2018-09-08T11:59:12.068Z,73.49
2018-09-08T12:01:40.593Z,70.34
2018-09-08T12:04:10.430Z,78.39
2018-09-08T12:06:39.338Z,78.78
2018-09-08T12:09:10.245Z,78.75
2018-09-08T12:11:39.332Z,78.26
2018-09-08T12:14:08.887Z,78.63
2018-09-08T12:16:39.075Z,79.26
2018-09-08T12:19:07.682Z,78.55
2018-09-08T12:21:36.294Z,78.59
2018-09-08T12:24:04.869Z,76.70
2018-09-08T12:26:38.896Z,74.91
2018-09-08T12:29:07.531Z,68.90
2018-09-08T12:31:39.653Z,68.55
2018-09-08T12:34:08.035Z,63.30
2018-09-08T12:36:37.679Z,69.16
2018-09-08T12:39:08.696Z,63.01
2018-09-08T12:41:37.057Z,61.34
2018-09-08T12:44:05.459Z,69.92
2018-09-08T12:46:34.035Z,66.85
2018-09-08T12:49:02.604Z,65.51
2018-09-08T12:51:31.676Z,57.72
2018-09-08T12:54:01.846Z,47.99
2018-09-08T12:56:33.729Z,51.64
2018-09-08T12:59:04.079Z,50.72
2018-09-08T13:01:36.105Z,53.58
2018-09-08T13:04:04.768Z,52.93
2018-09-08T13:06:34.605Z,49.11
2018-09-08T13:09:04.141Z,49.99
2018-09-08T13:11:32.647Z,50.14
2018-09-08T13:14:01.196Z,52.54
2018-09-08T13:16:29.618Z,53.79
2018-09-08T13:18:58.218Z,59.48
2018-09-08T13:21:26.609Z,62.86
2018-09-08T13:23:55.456Z,61.43
2018-09-08T13:26:24.400Z,57.10
2018-09-08T13:28:53.061Z,58.00
2018-09-08T13:31:22.868Z,60.48
2018-09-08T13:33:51.700Z,59.17
2018-09-08T13:36:21.424Z,58.81
2018-09-08T13:38:49.998Z,66.94
2018-09-08T13:41:19.664Z,64.95
2018-09-08T13:43:48.313Z,55.63
2018-09-08T13:46:18.099Z,63.60
2018-09-08T13:48:46.941Z,65.02
2018-09-08T13:51:15.425Z,59.72
2018-09-08T13:53:49.192Z,55.19
2018-09-08T13:56:18.169Z,54.01
2018-09-08T13:58:46.500Z,55.90
2018-09-08T14:01:14.815Z,54.56
2018-09-08T14:03:43.405Z,56.70
2018-09-08T14:06:12.085Z,52.31
2018-09-08T14:08:40.752Z,52.43
2018-09-08T14:11:09.268Z,52.36
2018-09-08T14:13:37.997Z,50.60
2018-09-08T14:16:06.925Z,51.54
2018-09-08T14:18:35.484Z,49.37
2018-09-08T14:21:04.469Z,51.38
2018-09-08T14:23:32.968Z,52.68
2018-09-08T14:26:02.397Z,51.38
2018-09-08T14:28:30.795Z,53.62
2018-09-08T14:30:59.507Z,52.72
2018-09-08T14:33:28.298Z,50.89
2018-09-08T14:35:56.896Z,52.24
2018-09-08T14:38:25.490Z,55.44
2018-09-08T14:40:54.023Z,51.95
2018-09-08T14:43:22.347Z,53.62
2018-09-08T14:45:51.815Z,53.02
2018-09-08T14:48:20.330Z,54.02
2018-09-08T14:50:48.826Z,53.36
2018-09-08T14:53:17.242Z,52.96
2018-09-08T14:55:48.129Z,56.67
2018-09-08T14:58:16.739Z,51.33
2018-09-08T15:00:45.226Z,54.32
2018-09-08T15:03:13.920Z,54.43
2018-09-08T15:05:46.559Z,55.48
2018-09-08T15:08:15.117Z,57.24
2018-09-08T15:10:44.129Z,53.39
2018-09-08T15:13:12.942Z,54.63
2018-09-08T15:15:41.529Z,57.15
2018-09-08T15:18:10.233Z,53.21
2018-09-08T15:20:38.684Z,57.62
2018-09-08T15:23:07.243Z,57.84
2018-09-08T15:25:36.166Z,58.74
2018-09-08T15:28:05.111Z,57.60
2018-09-08T15:30:33.731Z,61.06
2018-09-08T15:33:02.711Z,61.08
2018-09-08T15:35:31.667Z,64.12
2018-09-08T15:38:00.326Z,62.92
2018-09-08T15:40:28.778Z,63.56
2018-09-08T15:42:57.544Z,60.85
2018-09-08T15:45:26.202Z,65.57
2018-09-08T15:47:55.477Z,65.42
2018-09-08T15:50:24.036Z,65.58
2018-09-08T15:52:52.481Z,63.50
2018-09-08T15:55:21.311Z,65.47
2018-09-08T15:57:51.283Z,66.30
2018-09-08T16:00:21.168Z,67.71
2018-09-08T16:05:46.639Z,69.22
2018-09-08T16:08:16.199Z,68.53
2018-09-08T16:10:44.733Z,69.59
2018-09-08T16:13:13.209Z,69.91
2018-09-08T16:15:42.110Z,71.46
2018-09-08T16:18:10.526Z,70.48
2018-09-08T16:20:40.762Z,72.20
2018-09-08T16:23:09.307Z,72.93
2018-09-08T16:25:38.070Z,73.11
2018-09-08T16:28:06.810Z,73.25
2018-09-08T16:30:35.589Z,74.87
2018-09-08T16:33:04.194Z,74.75
2018-09-08T16:35:32.551Z,73.77
2018-09-08T16:38:03.004Z,76.47
2018-09-08T16:40:32.659Z,77.23
2018-09-08T16:43:01.523Z,78.37
2018-09-08T16:45:29.921Z,78.25
2018-09-08T16:48:01.104Z,79.13
2018-09-08T16:50:29.645Z,78.55
2018-09-08T16:52:57.973Z,79.51
2018-09-08T16:55:26.317Z,79.66
2018-09-08T16:57:56.750Z,80.29
2018-09-08T17:00:25.488Z,81.12
2018-09-08T17:02:54.140Z,81.62
2018-09-08T17:05:23.241Z,81.27
2018-09-08T17:07:51.935Z,78.77
2018-09-08T17:10:22.199Z,81.51
2018-09-08T17:12:50.903Z,80.59
2018-09-08T17:15:21.472Z,82.75
2018-09-08T17:17:52.960Z,83.14
2018-09-08T17:20:21.657Z,83.71
2018-09-08T17:22:50.356Z,84.66
2018-09-08T17:25:19.465Z,84.35
2018-09-08T17:27:49.891Z,84.22
2018-09-08T17:30:18.334Z,84.59
2018-09-08T17:32:47.298Z,84.67
2018-09-08T17:35:15.646Z,85.79
2018-09-08T17:37:44.403Z,85.08
2018-09-08T17:40:12.933Z,85.75
2018-09-08T17:42:41.412Z,87.10
2018-09-08T17:45:10.368Z,85.32
2018-09-08T17:47:39.387Z,84.80
2018-09-08T17:50:08.351Z,84.97
2018-09-08T17:52:37.388Z,85.62
2018-09-08T17:55:06.269Z,84.02
2018-09-08T17:57:35.215Z,81.89
2018-09-08T18:00:04.399Z,83.71
2018-09-08T18:02:39.725Z,85.69
2018-09-08T18:05:08.442Z,86.00
2018-09-08T18:07:37.111Z,85.80
2018-09-08T18:10:07.366Z,87.51
2018-09-08T18:12:36.152Z,85.95
2018-09-08T18:15:06.062Z,86.16
2018-09-08T18:17:35.539Z,87.40
2018-09-08T18:20:05.556Z,87.83
2018-09-08T18:22:35.539Z,88.11
2018-09-08T18:25:06.047Z,88.60
2018-09-08T18:27:34.846Z,89.69
2018-09-08T18:30:03.755Z,89.41
2018-09-08T18:32:33.102Z,89.86
2018-09-08T18:35:02.001Z,90.95
2018-09-08T18:37:31.766Z,90.70
2018-09-08T18:40:00.385Z,90.64
2018-09-08T18:42:29.377Z,91.94
2018-09-08T18:44:59.949Z,92.25
2018-09-08T18:47:30.030Z,91.02
2018-09-08T18:49:58.813Z,91.75
2018-09-08T18:52:27.365Z,91.72
2018-09-08T18:54:56.123Z,92.47
2018-09-08T18:57:25.588Z,93.56
2018-09-08T18:59:54.047Z,93.23
2018-09-08T19:02:22.756Z,93.01
2018-09-08T19:04:52.422Z,93.08
2018-09-08T19:07:23.039Z,93.54
2018-09-08T19:09:57.178Z,94.49
2018-09-08T19:12:25.660Z,94.02
2018-09-08T19:14:59.726Z,94.92
2018-09-08T19:17:28.152Z,95.09
2018-09-08T19:20:02.374Z,94.79
2018-09-08T19:22:30.896Z,95.52
2018-09-08T19:24:59.530Z,94.96
2018-09-08T19:27:28.404Z,95.24
2018-09-08T19:30:01.376Z,95.36
2018-09-08T19:32:30.284Z,95.05
2018-09-08T19:35:04.937Z,95.38
2018-09-08T19:37:35.424Z,95.11
2018-09-08T19:40:09.414Z,95.43
2018-09-08T19:42:38.706Z,95.68
2018-09-08T19:45:08.698Z,95.82
2018-09-08T19:47:42.943Z,95.97
2018-09-08T19:50:11.568Z,95.33
2018-09-08T19:52:47.103Z,96.42
2018-09-08T19:55:15.967Z,96.25
2018-09-08T19:57:50.071Z,95.44
2018-09-08T20:00:18.748Z,97.47
2018-09-08T20:02:47.320Z,97.24
2018-09-08T20:05:16.217Z,96.83
2018-09-08T20:07:44.794Z,97.01
2018-09-08T20:10:13.396Z,97.54
2018-09-08T20:12:43.279Z,97.12
2018-09-08T20:15:12.181Z,97.31
2018-09-08T20:17:41.162Z,97.22
2018-09-08T20:20:09.994Z,98.50
2018-09-08T20:22:38.960Z,98.55
2018-09-08T20:25:07.899Z,98.54
2018-09-08T20:27:37.187Z,98.01
2018-09-08T20:30:07.724Z,99.15
2018-09-08T20:32:36.450Z,99.12
2018-09-08T20:35:05.632Z,99.72
2018-09-08T20:37:35.320Z,99.12
2018-09-08T20:40:04.376Z,99.08
2018-09-08T20:42:33.696Z,99.98
2018-09-08T20:45:03.958Z,99.89
2018-09-08T20:47:32.655Z,99.75
2018-09-08T20:50:01.457Z,100.00
2018-09-08T20:52:30.360Z,100.00
2018-09-08T20:54:59.398Z,100.00
2018-09-08T20:57:27.913Z,100.00
2018-09-08T20:59:56.238Z,100.00
2018-09-08T21:02:25.401Z,100.00
2018-09-08T21:04:56.276Z,100.00
2018-09-08T21:07:24.936Z,100.00
2018-09-08T21:09:53.776Z,100.00
2018-09-08T21:12:22.617Z,100.00
2018-09-08T21:14:52.517Z,100.00
2018-09-08T21:17:21.058Z,100.00
2018-09-08T21:19:49.452Z,100.00
2018-09-08T21:22:17.970Z,100.00
2018-09-08T21:24:46.645Z,100.00
2018-09-08T21:27:15.269Z,100.00
2018-09-08T21:29:43.741Z,100.00
2018-09-08T21:32:12.478Z,100.00
2018-09-08T21:34:41.194Z,100.00
2018-09-08T21:37:09.947Z,100.00
2018-09-08T21:39:38.441Z,100.00
2018-09-08T21:42:07.039Z,100.00
2018-09-08T21:44:35.508Z,100.00
2018-09-08T21:47:05.912Z,100.00
2018-09-08T21:49:33.178Z,100.00
2018-09-08T21:52:01.837Z,100.00
2018-09-08T21:54:30.538Z,100.00
2018-09-08T21:56:59.209Z,100.00
2018-09-08T21:59:27.732Z,100.00
2018-09-08T22:01:56.494Z,100.00
2018-09-08T22:04:25.114Z,100.00
2018-09-08T22:06:53.906Z,100.00
2018-09-08T22:09:22.366Z,100.00
2018-09-08T22:11:50.861Z,100.00
2018-09-08T22:14:19.969Z,100.00
2018-09-08T22:16:48.556Z,100.00
2018-09-08T22:19:17.089Z,100.00
2018-09-08T22:21:45.682Z,100.00
2018-09-08T22:24:14.192Z,100.00
2018-09-08T22:26:42.915Z,100.00
2018-09-08T22:29:11.361Z,100.00
2018-09-08T22:31:39.960Z,100.00
2018-09-08T22:34:08.485Z,100.00
2018-09-08T22:36:37.111Z,100.00
2018-09-08T22:39:07.489Z,100.00
2018-09-08T22:41:35.918Z,100.00
2018-09-08T22:44:04.591Z,100.00
2018-09-08T22:46:33.132Z,100.00
2018-09-08T22:49:01.584Z,100.00
2018-09-08T22:51:30.100Z,100.00
2018-09-08T22:53:58.763Z,100.00
2018-09-08T22:56:27.257Z,100.00
2018-09-08T22:58:55.785Z,100.00
2018-09-08T23:01:24.280Z,100.00
2018-09-08T23:03:52.899Z,100.00
2018-09-08T23:06:21.496Z,100.00
2018-09-08T23:08:49.864Z,100.00
2018-09-08T23:11:18.423Z,100.00
2018-09-08T23:13:47.093Z,100.00
2018-09-08T23:16:15.607Z,100.00
2018-09-08T23:18:44.061Z,100.00
2018-09-08T23:21:12.665Z,100.00
2018-09-08T23:23:41.137Z,100.00
2018-09-08T23:26:09.647Z,100.00
2018-09-08T23:28:38.353Z,100.00
2018-09-08T23:31:06.978Z,100.00
2018-09-08T23:33:35.564Z,100.00
2018-09-08T23:36:04.005Z,100.00
2018-09-08T23:38:32.508Z,100.00
2018-09-08T23:41:00.997Z,100.00
2018-09-08T23:43:29.445Z,100.00
2018-09-08T23:45:57.900Z,100.00
2018-09-08T23:48:27.068Z,100.00
2018-09-08T23:50:56.201Z,100.00
2018-09-08T23:53:24.908Z,100.00
2018-09-08T23:55:53.465Z,100.00
2018-09-08T23:58:22.041Z,100.00
